Time;durP1;ratioP1;P1;durP2;ratioP2;P2;SDS_P1;SDS_P2;PMS_P1;PMS_P2;Temp;Humidity;BMP_temperature;BMP_pressure;BME280_temperature;BME280_humidity;BME280_pressure;Samples;Min_cycle;Max_cycle;Signal;HPM_P1;HPM_P2
2022/07/25 00:00:31;;;;;;;4.35;3.28;;;26.90;49.90;;;;;;5086931;28;20310;-59
2022/07/25 00:02:58;;;;;;;3.20;3.00;;;26.90;49.90;;;;;;5086907;28;20125;-59
2022/07/25 00:05:25;;;;;;;3.05;2.78;;;26.90;50.00;;;;;;5085757;28;20485;-59
2022/07/25 00:07:53;;;;;;;3.35;3.05;;;26.90;49.90;;;;;;5087470;28;20048;-59
2022/07/25 00:10:20;;;;;;;3.28;3.00;;;26.90;50.00;;;;;;5086776;28;20076;-59
2022/07/25 00:12:47;;;;;;;3.30;3.00;;;26.90;50.00;;;;;;5087143;28;20052;-59
2022/07/25 00:15:14;;;;;;;2.78;2.58;;;26.80;49.90;;;;;;5086839;28;20337;-59
2022/07/25 00:17:41;;;;;;;3.05;2.85;;;26.80;49.90;;;;;;5081983;28;20040;-59
2022/07/25 00:20:09;;;;;;;3.28;3.00;;;26.90;50.00;;;;;;5087020;28;20075;-59
2022/07/25 00:22:36;;;;;;;3.30;3.10;;;26.90;50.00;;;;;;5086850;28;20040;-59
2022/07/25 00:25:03;;;;;;;3.33;3.10;;;26.90;50.00;;;;;;5086914;28;20456;-59
2022/07/25 00:27:30;;;;;;;3.30;3.10;;;26.80;49.90;;;;;;5086488;28;20504;-59
2022/07/25 00:29:57;;;;;;;4.10;2.80;;;26.80;50.00;;;;;;5085129;28;20133;-59
2022/07/25 00:32:25;;;;;;;2.85;2.65;;;26.80;50.00;;;;;;5086511;28;20101;-59
2022/07/25 00:34:52;;;;;;;3.97;3.67;;;26.80;50.00;;;;;;5085280;28;20093;-60
2022/07/25 00:37:19;;;;;;;3.60;3.30;;;26.80;50.00;;;;;;5086315;28;20047;-59
2022/07/25 00:39:46;;;;;;;3.45;3.20;;;26.80;50.00;;;;;;5086336;28;20192;-59
2022/07/25 00:42:13;;;;;;;3.15;2.85;;;26.80;50.00;;;;;;5085437;28;20097;-60
2022/07/25 00:44:40;;;;;;;3.20;3.00;;;26.80;50.10;;;;;;5084764;28;20087;-60
2022/07/25 00:47:07;;;;;;;3.53;3.22;;;26.80;50.10;;;;;;5084524;28;20393;-59
2022/07/25 00:49:34;;;;;;;3.33;2.88;;;26.80;50.10;;;;;;5082128;28;20059;-59
2022/07/25 00:52:02;;;;;;;3.17;2.95;;;26.80;50.10;;;;;;5086053;28;20044;-60
2022/07/25 00:54:30;;;;;;;3.40;3.10;;;26.80;50.10;;;;;;5086181;28;20086;-60
2022/07/25 00:56:57;;;;;;;3.20;2.90;;;26.80;50.10;;;;;;5086481;28;20095;-62
2022/07/25 00:59:24;;;;;;;3.08;2.88;;;26.80;50.10;;;;;;5085558;28;20044;-59
2022/07/25 01:01:51;;;;;;;3.42;3.13;;;26.80;50.10;;;;;;5085266;28;20481;-59
2022/07/25 01:04:19;;;;;;;3.30;3.00;;;26.80;50.10;;;;;;5085860;28;20443;-60
2022/07/25 01:06:46;;;;;;;2.70;2.50;;;26.80;50.10;;;;;;5085075;28;20489;-60
2022/07/25 01:09:13;;;;;;;3.08;2.88;;;26.80;50.10;;;;;;5085979;28;20048;-60
2022/07/25 01:11:41;;;;;;;2.72;2.53;;;26.80;50.10;;;;;;5085809;28;20044;-59
2022/07/25 01:14:08;;;;;;;3.72;3.38;;;26.80;50.10;;;;;;5085765;28;20427;-59
2022/07/25 01:16:35;;;;;;;3.03;2.83;;;26.80;50.00;;;;;;5085699;28;20048;-60
2022/07/25 01:19:03;;;;;;;3.17;2.90;;;26.80;50.00;;;;;;5083183;28;20455;-59
2022/07/25 01:21:30;;;;;;;3.00;2.80;;;26.80;50.00;;;;;;5082632;28;20541;-59
2022/07/25 01:23:57;;;;;;;3.45;2.80;;;26.80;50.10;;;;;;5084262;28;20047;-60
2022/07/25 01:26:24;;;;;;;3.38;3.08;;;26.80;50.00;;;;;;5084412;28;20301;-59
2022/07/25 01:28:51;;;;;;;3.25;2.95;;;26.70;50.00;;;;;;5086007;28;20378;-60
2022/07/25 01:31:18;;;;;;;2.97;2.78;;;26.80;50.00;;;;;;5085468;28;20395;-59
2022/07/25 01:33:46;;;;;;;2.72;2.53;;;26.80;50.10;;;;;;5084257;28;20090;-59
2022/07/25 01:36:13;;;;;;;2.88;2.67;;;26.80;50.10;;;;;;5085612;28;20072;-59
2022/07/25 01:38:40;;;;;;;3.13;2.92;;;26.70;50.00;;;;;;5084765;28;20530;-59
2022/07/25 01:41:07;;;;;;;2.80;2.60;;;26.80;50.10;;;;;;5085280;28;20051;-60
2022/07/25 01:43:34;;;;;;;3.08;2.88;;;26.70;50.00;;;;;;5084904;28;20048;-60
2022/07/25 01:46:02;;;;;;;3.10;2.78;;;26.70;50.10;;;;;;5085616;28;20048;-60
2022/07/25 01:48:29;;;;;;;3.10;2.80;;;26.70;50.10;;;;;;5084759;28;20058;-59
2022/07/25 01:50:56;;;;;;;2.80;2.60;;;26.70;50.10;;;;;;5080824;28;20072;-59
2022/07/25 01:53:23;;;;;;;3.03;2.83;;;26.70;50.10;;;;;;5085045;28;20048;-60
2022/07/25 01:55:52;;;;;;;3.53;3.22;;;26.70;50.10;;;;;;5083777;28;20396;-60
2022/07/25 01:58:20;;;;;;;3.03;2.80;;;26.70;50.10;;;;;;5084976;28;20048;-59
2022/07/25 02:00:47;;;;;;;3.63;3.08;;;26.70;50.10;;;;;;5085161;28;20415;-59
2022/07/25 02:03:30;;;;;;;3.00;2.80;;;26.70;50.10;;;;;;5085524;28;20094;-60
2022/07/25 02:06:00;;;;;;;2.90;2.70;;;26.70;50.10;;;;;;5085439;28;20075;-60
2022/07/25 02:08:28;;;;;;;3.10;2.90;;;26.70;50.10;;;;;;5085312;28;20167;-59
2022/07/25 02:10:56;;;;;;;2.92;2.72;;;26.70;50.20;;;;;;5085613;28;20112;-60
2022/07/25 02:13:24;;;;;;;2.97;2.78;;;26.70;50.20;;;;;;5083121;28;20472;-60
2022/07/25 02:15:51;;;;;;;2.88;2.67;;;26.70;50.20;;;;;;5089647;28;20505;-60
2022/07/25 02:18:18;;;;;;;2.67;2.47;;;26.70;50.20;;;;;;5088627;28;20079;-63
2022/07/25 02:20:45;;;;;;;2.85;2.65;;;26.70;50.20;;;;;;5089326;28;20483;-60
2022/07/25 02:23:13;;;;;;;3.25;2.90;;;26.70;50.20;;;;;;5084418;28;20579;-60
2022/07/25 02:25:40;;;;;;;3.10;2.72;;;26.70;50.20;;;;;;5089068;28;20075;-59
2022/07/25 02:28:07;;;;;;;2.78;2.58;;;26.70;50.20;;;;;;5088944;28;20044;-59
2022/07/25 02:30:36;;;;;;;2.60;2.40;;;26.70;50.10;;;;;;5088881;28;20109;-59
2022/07/25 02:33:04;;;;;;;2.65;2.45;;;26.70;50.10;;;;;;5089402;28;20072;-59
2022/07/25 02:35:31;;;;;;;7.50;3.17;;;26.70;50.10;;;;;;5071419;28;20101;-61
2022/07/25 02:37:58;;;;;;;2.80;2.60;;;26.70;50.10;;;;;;5089185;28;20484;-61
2022/07/25 02:40:26;;;;;;;3.88;2.55;;;26.70;50.10;;;;;;5089632;28;20101;-61
2022/07/25 02:42:53;;;;;;;3.08;2.88;;;26.70;50.10;;;;;;5089524;28;20048;-61
2022/07/25 02:45:20;;;;;;;2.90;2.70;;;26.60;50.00;;;;;;5088869;28;20139;-61
2022/07/25 02:47:47;;;;;;;2.78;2.58;;;26.70;50.10;;;;;;5089223;28;20113;-61
2022/07/25 02:50:15;;;;;;;2.55;2.38;;;26.70;50.10;;;;;;5087257;28;20450;-61
2022/07/25 02:52:42;;;;;;;3.05;2.85;;;26.70;50.10;;;;;;5089084;28;20052;-60
2022/07/25 02:55:11;;;;;;;2.90;2.70;;;26.70;50.10;;;;;;5084965;28;20270;-60
2022/07/25 02:57:38;;;;;;;2.83;2.63;;;26.70;50.10;;;;;;5089978;28;20078;-59
2022/07/25 03:00:07;;;;;;;2.47;2.28;;;26.70;50.10;;;;;;5089095;28;20051;-59
2022/07/25 03:02:34;;;;;;;3.08;2.88;;;26.70;50.10;;;;;;5088951;28;20076;-60
2022/07/25 03:05:04;;;;;;;2.90;2.70;;;26.70;50.10;;;;;;5088570;28;20488;-60
2022/07/25 03:07:31;;;;;;;2.97;2.78;;;26.70;50.10;;;;;;5087679;28;20548;-61
2022/07/25 03:09:58;;;;;;;2.70;2.50;;;26.70;50.10;;;;;;5089214;28;20124;-60
2022/07/25 03:12:26;;;;;;;2.83;2.63;;;26.70;50.10;;;;;;5089717;28;20044;-60
2022/07/25 03:14:53;;;;;;;2.88;2.67;;;26.60;50.00;;;;;;5088524;28;20299;-60
2022/07/25 03:17:20;;;;;;;2.88;2.67;;;26.60;50.10;;;;;;5089907;28;20113;-60
2022/07/25 03:19:47;;;;;;;3.00;2.80;;;26.60;50.10;;;;;;5088370;28;20135;-59
2022/07/25 03:22:15;;;;;;;2.90;2.70;;;26.60;50.10;;;;;;5089721;28;20071;-60
2022/07/25 03:24:42;;;;;;;2.70;2.50;;;26.60;50.10;;;;;;5085571;28;20359;-60
2022/07/25 03:27:09;;;;;;;2.92;2.72;;;26.60;50.10;;;;;;5084572;28;20485;-59
2022/07/25 03:29:36;;;;;;;2.50;2.30;;;26.70;50.10;;;;;;5088962;28;20080;-59
2022/07/25 03:32:04;;;;;;;2.28;2.17;;;26.70;50.10;;;;;;5088776;28;20084;-60
2022/07/25 03:34:31;;;;;;;2.80;2.60;;;26.60;50.10;;;;;;5086655;28;20477;-60
2022/07/25 03:36:59;;;;;;;2.45;2.25;;;26.60;50.00;;;;;;5069099;28;20068;-60
2022/07/25 03:39:27;;;;;;;3.55;2.95;;;26.70;50.10;;;;;;5071917;28;20094;-60
2022/07/25 03:41:55;;;;;;;2.58;2.42;;;26.60;50.00;;;;;;5089091;28;20116;-60
2022/07/25 03:44:24;;;;;;;2.50;2.30;;;26.70;50.10;;;;;;5087943;28;20097;-59
2022/07/25 03:46:51;;;;;;;2.83;2.63;;;26.70;50.10;;;;;;5089082;28;20553;-60
2022/07/25 03:49:18;;;;;;;2.40;2.30;;;26.70;50.00;;;;;;5086664;28;20488;-59
2022/07/25 03:51:45;;;;;;;2.80;2.60;;;26.70;50.00;;;;;;5088452;28;20105;-60
2022/07/25 03:54:13;;;;;;;2.83;2.60;;;26.70;50.00;;;;;;5088700;28;20480;-60
2022/07/25 03:56:42;;;;;;;2.53;2.33;;;26.70;50.00;;;;;;5082826;28;20359;-60
2022/07/25 03:59:12;;;;;;;2.67;2.47;;;26.70;49.90;;;;;;5088562;28;20079;-60
2022/07/25 04:01:41;;;;;;;2.58;2.38;;;26.70;49.90;;;;;;5086559;28;20040;-60
2022/07/25 04:04:09;;;;;;;2.45;2.25;;;26.70;50.40;;;;;;5087511;28;20081;-59
2022/07/25 04:06:37;;;;;;;2.70;2.50;;;26.80;49.90;;;;;;5088305;28;20124;-60
2022/07/25 04:09:04;;;;;;;2.38;2.25;;;26.80;49.80;;;;;;5087673;28;20094;-60
2022/07/25 04:11:32;;;;;;;2.80;2.58;;;26.80;49.80;;;;;;5087850;28;20051;-60
2022/07/25 04:13:59;;;;;;;2.63;2.42;;;26.80;49.80;;;;;;5087410;28;20044;-59
2022/07/25 04:16:26;;;;;;;2.42;2.22;;;26.80;49.70;;;;;;5087957;28;20565;-59
2022/07/25 04:18:54;;;;;;;2.60;2.40;;;26.80;49.70;;;;;;5086896;28;20052;-59
2022/07/25 04:21:23;;;;;;;2.50;2.30;;;26.80;49.60;;;;;;5086062;28;20375;-59
2022/07/25 04:23:51;;;;;;;2.10;2.00;;;26.80;49.60;;;;;;5087050;28;20516;-59
2022/07/25 04:26:19;;;;;;;2.55;2.35;;;26.90;49.60;;;;;;5085095;28;20443;-59
2022/07/25 04:28:46;;;;;;;2.33;2.22;;;26.90;49.60;;;;;;5082081;28;20093;-59
2022/07/25 04:31:14;;;;;;;2.33;2.22;;;26.90;49.50;;;;;;5086151;28;20524;-59
2022/07/25 04:33:42;;;;;;;2.65;2.45;;;26.90;49.50;;;;;;5084945;28;20044;-60
2022/07/25 04:36:09;;;;;;;2.22;2.13;;;26.90;49.40;;;;;;5086351;28;20098;-59
2022/07/25 04:38:36;;;;;;;2.90;2.70;;;26.90;49.40;;;;;;5085897;28;20040;-60
2022/07/25 04:41:04;;;;;;;2.72;2.53;;;27.00;49.40;;;;;;5085737;28;20060;-59
2022/07/25 04:43:31;;;;;;;2.92;2.72;;;27.00;49.30;;;;;;5086995;28;20052;-59
2022/07/25 04:45:58;;;;;;;2.40;2.25;;;27.00;49.20;;;;;;5082755;28;20052;-60
2022/07/25 04:48:25;;;;;;;2.78;2.58;;;27.00;49.20;;;;;;5086337;28;20377;-60
2022/07/25 04:50:53;;;;;;;2.92;2.72;;;27.10;49.20;;;;;;5085654;28;20040;-60
2022/07/25 04:53:20;;;;;;;2.67;2.47;;;27.10;49.10;;;;;;5086647;28;20051;-59
2022/07/25 04:55:47;;;;;;;2.60;2.40;;;27.10;49.10;;;;;;5085979;28;20495;-60
2022/07/25 04:58:15;;;;;;;2.28;2.17;;;27.10;49.00;;;;;;5085597;28;20090;-60
2022/07/25 05:00:42;;;;;;;2.72;2.53;;;27.20;49.00;;;;;;5080857;28;20435;-60
2022/07/25 05:03:09;;;;;;;2.65;2.47;;;27.20;48.90;;;;;;5084959;28;20044;-59
2022/07/25 05:05:37;;;;;;;2.88;2.67;;;27.20;48.90;;;;;;5087854;28;20101;-63
2022/07/25 05:08:04;;;;;;;3.03;2.83;;;27.20;48.80;;;;;;5087147;28;20081;-60
2022/07/25 05:10:31;;;;;;;3.05;2.30;;;27.10;48.70;;;;;;5079690;28;20636;-60
2022/07/25 05:12:58;;;;;;;3.28;2.97;;;27.10;48.70;;;;;;5069563;28;20353;-60
2022/07/25 05:15:25;;;;;;;2.83;2.63;;;27.00;48.70;;;;;;5081735;28;20097;-60
2022/07/25 05:17:53;;;;;;;3.00;2.58;;;26.90;48.80;;;;;;5086553;28;20048;-60
2022/07/25 05:20:20;;;;;;;3.67;2.90;;;26.70;49.00;;;;;;5085794;28;20561;-60
2022/07/25 05:22:48;;;;;;;3.35;2.70;;;26.40;49.30;;;;;;5082959;28;20450;-60
2022/07/25 05:25:15;;;;;;;4.70;3.00;;;26.10;49.60;;;;;;5072501;28;20071;-60
2022/07/25 05:27:43;;;;;;;4.18;2.83;;;25.80;49.30;;;;;;5070926;28;20709;-60
2022/07/25 05:30:11;;;;;;;3.55;3.25;;;25.50;48.90;;;;;;5073643;28;20143;-59
2022/07/25 05:32:39;;;;;;;4.05;3.08;;;25.10;48.50;;;;;;5073597;28;20043;-59
2022/07/25 05:35:08;;;;;;;3.50;3.20;;;24.70;48.50;;;;;;5076602;28;20044;-60
2022/07/25 05:37:36;;;;;;;4.00;3.38;;;24.30;48.50;;;;;;5077767;28;20504;-59
2022/07/25 05:40:05;;;;;;;4.10;3.15;;;24.00;48.90;;;;;;5079876;28;20446;-60
2022/07/25 05:42:32;;;;;;;3.95;3.00;;;23.60;49.60;;;;;;5077799;28;20479;-60
2022/07/25 05:45:02;;;;;;;6.13;4.13;;;23.40;49.20;;;;;;5065669;28;20076;-59
2022/07/25 05:47:33;;;;;;;4.85;4.00;;;23.10;49.30;;;;;;5080749;28;20091;-60
2022/07/25 05:50:03;;;;;;;5.90;3.85;;;22.90;49.00;;;;;;5076288;28;20459;-60
2022/07/25 05:52:33;;;;;;;7.60;4.15;;;22.60;49.00;;;;;;5089818;28;20041;-60
2022/07/25 05:55:01;;;;;;;6.00;3.97;;;22.40;49.40;;;;;;5093498;28;20128;-59
2022/07/25 05:57:28;;;;;;;4.47;3.78;;;22.20;49.50;;;;;;5093186;28;20045;-59
2022/07/25 05:59:56;;;;;;;5.47;3.90;;;22.00;50.90;;;;;;5091915;28;20054;-59
2022/07/25 06:02:23;;;;;;;4.60;4.20;;;21.90;51.40;;;;;;5093134;28;20088;-59
2022/07/25 06:04:51;;;;;;;4.53;4.13;;;21.80;51.60;;;;;;5075384;28;20044;-60
2022/07/25 06:07:18;;;;;;;4.45;4.05;;;21.80;51.90;;;;;;5091348;28;20048;-60
2022/07/25 06:09:45;;;;;;;4.68;4.28;;;21.70;52.00;;;;;;5093711;28;20148;-60
2022/07/25 06:12:12;;;;;;;4.72;4.22;;;21.60;52.80;;;;;;5093124;28;20558;-59
2022/07/25 06:14:40;;;;;;;5.97;4.32;;;21.60;52.40;;;;;;5093078;28;20070;-60
2022/07/25 06:17:08;;;;;;;10.43;4.68;;;21.50;52.70;;;;;;5093102;28;20044;-60
2022/07/25 06:19:35;;;;;;;8.27;5.50;;;21.50;53.00;;;;;;5093295;28;20378;-60
2022/07/25 06:22:03;;;;;;;6.13;5.20;;;21.40;53.40;;;;;;5093070;28;20048;-59
2022/07/25 06:24:30;;;;;;;6.70;4.57;;;21.40;53.60;;;;;;5093408;28;20117;-59
2022/07/25 06:26:57;;;;;;;6.43;4.78;;;21.40;53.50;;;;;;5091697;28;20473;-59
2022/07/25 06:29:24;;;;;;;9.10;4.70;;;21.40;53.90;;;;;;5092979;28;20048;-59
2022/07/25 06:31:52;;;;;;;7.03;4.72;;;21.40;53.90;;;;;;5091699;28;20044;-58
2022/07/25 06:34:19;;;;;;;6.68;5.18;;;21.40;54.00;;;;;;5064378;28;20890;-59
2022/07/25 06:36:46;;;;;;;5.10;4.38;;;21.40;54.10;;;;;;5069250;28;20075;-59
2022/07/25 06:39:13;;;;;;;8.80;4.82;;;21.40;54.20;;;;;;5070361;28;20053;-61
2022/07/25 06:41:43;;;;;;;8.98;4.60;;;21.40;54.30;;;;;;5068980;28;20083;-59
2022/07/25 06:44:11;;;;;;;8.07;4.55;;;21.30;54.60;;;;;;5078724;28;20193;-61
2022/07/25 06:46:40;;;;;;;6.35;5.00;;;21.40;54.70;;;;;;5072861;28;20094;-61
2022/07/25 06:49:07;;;;;;;9.13;5.20;;;21.40;54.80;;;;;;5069125;28;20090;-60
2022/07/25 06:51:35;;;;;;;10.23;4.88;;;21.40;55.00;;;;;;5074572;28;20048;-59
2022/07/25 06:54:02;;;;;;;5.25;4.53;;;21.40;55.00;;;;;;5073888;28;20041;-60
2022/07/25 06:56:31;;;;;;;7.90;4.90;;;21.40;55.20;;;;;;5074169;28;20059;-60
2022/07/25 06:58:59;;;;;;;8.07;5.10;;;21.50;55.20;;;;;;5075162;28;20044;-60
2022/07/25 07:01:26;;;;;;;6.65;4.95;;;21.50;55.40;;;;;;5079023;28;20097;-62
2022/07/25 07:03:54;;;;;;;5.63;5.00;;;21.50;55.20;;;;;;5078960;28;20086;-61
2022/07/25 07:06:22;;;;;;;5.60;5.00;;;21.60;55.60;;;;;;5071514;28;20048;-62
2022/07/25 07:08:50;;;;;;;5.85;4.82;;;21.60;55.70;;;;;;5079211;28;20075;-62
2022/07/25 07:11:18;;;;;;;7.15;5.53;;;21.70;56.10;;;;;;5076486;28;20511;-62
2022/07/25 07:13:45;;;;;;;8.68;4.53;;;21.70;56.30;;;;;;5075845;28;20378;-63
2022/07/25 07:16:13;;;;;;;5.47;4.97;;;21.70;56.40;;;;;;5077359;28;20164;-62
2022/07/25 07:18:40;;;;;;;5.32;4.68;;;21.80;56.30;;;;;;5077117;28;20620;-63
2022/07/25 07:21:14;;;;;;;7.45;5.07;;;21.80;56.20;;;;;;5067964;28;20447;-63
2022/07/25 07:23:48;;;;;;;4.97;4.55;;;21.80;56.60;;;;;;5071953;28;20098;-64
2022/07/25 07:26:20;;;;;;;5.68;5.18;;;21.90;55.90;;;;;;5072412;28;20044;-64
2022/07/25 07:28:47;;;;;;;6.15;5.18;;;21.90;56.00;;;;;;5077099;28;20052;-64
2022/07/25 07:31:16;;;;;;;7.72;4.53;;;21.90;55.90;;;;;;5077292;28;20488;-63
2022/07/25 07:33:44;;;;;;;8.10;5.05;;;22.00;55.90;;;;;;5076106;28;20189;-63
2022/07/25 07:36:12;;;;;;;8.68;4.35;;;22.00;55.90;;;;;;5074659;28;20128;-63
2022/07/25 07:38:40;;;;;;;7.38;4.68;;;22.00;55.90;;;;;;5070465;28;20053;-62
2022/07/25 07:41:07;;;;;;;9.35;5.30;;;22.10;56.00;;;;;;5059506;28;20076;-62
2022/07/25 07:43:34;;;;;;;5.80;4.68;;;22.00;55.90;;;;;;5072489;28;20047;-62
2022/07/25 07:46:01;;;;;;;5.75;5.18;;;22.10;56.60;;;;;;5081920;28;20044;-62
2022/07/25 07:48:30;;;;;;;5.55;4.95;;;22.10;55.90;;;;;;5075740;28;20446;-61
2022/07/25 07:50:59;;;;;;;5.55;5.05;;;22.10;55.90;;;;;;5077795;28;20058;-62
2022/07/25 07:56:17;;;;;;;5.85;4.57;;;22.10;56.00;;;;;;5072898;28;20185;-62
2022/07/25 07:58:46;;;;;;;8.55;5.63;;;22.10;56.00;;;;;;5073368;28;20052;-62
2022/07/25 08:01:13;;;;;;;5.65;4.90;;;22.10;56.10;;;;;;5072543;28;20054;-62
2022/07/25 08:03:40;;;;;;;7.95;6.22;;;22.10;56.50;;;;;;5078265;28;20044;-63
2022/07/25 08:06:07;;;;;;;8.57;5.68;;;22.10;56.80;;;;;;5075822;28;20182;-63
2022/07/25 08:08:34;;;;;;;5.05;4.55;;;22.00;56.90;;;;;;5074030;28;20433;-63
2022/07/25 08:11:02;;;;;;;5.95;5.35;;;22.00;57.70;;;;;;5077301;28;20497;-64
2022/07/25 08:13:32;;;;;;;5.07;4.43;;;22.00;57.10;;;;;;5077583;28;20466;-63
2022/07/25 08:16:00;;;;;;;;;;;22.10;57.40;;;;;;5076118;28;20043;-63
2022/07/25 08:18:31;;;;;;;5.30;4.75;;;22.10;57.10;;;;;;5077314;28;19920;-64
2022/07/25 08:21:01;;;;;;;6.03;5.00;;;22.10;57.10;;;;;;5078631;28;20048;-61
2022/07/25 08:23:30;;;;;;;7.28;5.03;;;22.10;57.60;;;;;;5075812;28;20449;-62
2022/07/25 08:25:58;;;;;;;8.27;4.82;;;22.10;57.10;;;;;;5078558;28;20052;-60
2022/07/25 08:28:25;;;;;;;5.60;5.03;;;22.10;57.00;;;;;;5076799;28;20048;-63
2022/07/25 08:30:53;;;;;;;6.75;4.88;;;22.10;56.80;;;;;;5080333;28;20056;-62
2022/07/25 08:33:20;;;;;;;8.23;4.60;;;22.10;56.90;;;;;;5077462;28;20143;-62
2022/07/25 08:35:53;;;;;;;5.82;4.70;;;22.10;57.00;;;;;;5077795;28;20044;-63
2022/07/25 08:38:22;;;;;;;5.10;4.60;;;22.20;57.00;;;;;;5076667;28;20085;-62
2022/07/25 08:40:50;;;;;;;5.60;4.63;;;22.20;56.90;;;;;;5070812;28;20553;-63
2022/07/25 08:43:19;;;;;;;7.32;4.70;;;22.20;56.70;;;;;;5076847;28;20504;-64
2022/07/25 08:45:49;;;;;;;8.55;5.63;;;22.20;56.50;;;;;;5088481;28;20060;-63
2022/07/25 08:48:19;;;;;;;5.82;4.95;;;22.20;56.40;;;;;;5094932;28;20079;-64
2022/07/25 08:50:47;;;;;;;5.32;4.82;;;22.30;56.60;;;;;;5086848;28;20052;-64
2022/07/25 08:53:17;;;;;;;5.00;4.32;;;22.20;56.30;;;;;;5079154;28;20862;-64
2022/07/25 08:56:06;;;;;;;7.85;4.50;;;22.20;56.30;;;;;;5077803;28;20172;-64
2022/07/25 08:58:41;;;;;;;5.80;4.28;;;22.20;56.20;;;;;;5081554;28;20189;-65
2022/07/25 09:01:13;;;;;;;6.90;4.32;;;22.20;56.30;;;;;;5079190;28;20201;-62
2022/07/25 09:03:42;;;;;;;4.43;4.05;;;22.20;56.20;;;;;;5080715;28;20090;-62
2022/07/25 09:06:18;;;;;;;4.60;4.20;;;22.10;56.30;;;;;;5078757;28;20040;-63
2022/07/25 09:08:58;;;;;;;5.50;4.35;;;22.20;56.40;;;;;;5079364;28;20427;-63
2022/07/25 09:11:28;;;;;;;5.15;4.63;;;22.10;56.00;;;;;;5077315;28;20051;-63
2022/07/25 09:14:03;;;;;;;6.22;4.63;;;22.10;56.20;;;;;;5080394;28;20393;-63
2022/07/25 09:16:39;;;;;;;6.35;4.57;;;22.10;56.10;;;;;;5082494;28;20047;-63
2022/07/25 09:19:16;;;;;;;5.90;4.07;;;22.00;56.00;;;;;;5079202;28;20051;-64
2022/07/25 09:21:56;;;;;;;6.07;4.38;;;22.00;56.10;;;;;;5077898;28;20401;-63
2022/07/25 09:24:25;;;;;;;4.63;4.13;;;21.90;56.40;;;;;;5071330;28;20090;-61
2022/07/25 09:26:54;;;;;;;4.72;4.32;;;21.90;56.60;;;;;;5080420;28;20790;-63
2022/07/25 09:29:27;;;;;;;6.45;4.53;;;21.80;56.60;;;;;;5074526;28;20047;-63
2022/07/25 09:31:55;;;;;;;6.40;3.95;;;21.80;56.50;;;;;;5077434;28;20079;-63
2022/07/25 09:34:37;;;;;;;5.75;4.15;;;21.80;56.50;;;;;;5074369;28;20077;-63
2022/07/25 09:37:07;;;;;;;7.07;4.90;;;21.80;56.20;;;;;;5076023;28;20093;-62
2022/07/25 09:39:49;;;;;;;4.37;3.77;;;21.70;56.40;;;;;;5060023;28;20109;-61
2022/07/25 09:42:21;;;;;;;5.90;3.80;;;21.70;56.60;;;;;;5073004;28;20040;-63
2022/07/25 09:45:10;;;;;;;5.40;4.22;;;21.70;56.90;;;;;;5076080;28;20396;-62
2022/07/25 09:47:53;;;;;;;4.22;3.80;;;21.70;56.90;;;;;;5074794;28;20048;-66
2022/07/25 09:50:23;;;;;;;5.43;3.72;;;21.70;57.00;;;;;;5075480;28;20079;-62
2022/07/25 09:52:52;;;;;;;5.07;3.65;;;21.80;57.10;;;;;;5079073;28;20052;-66
2022/07/25 09:55:20;;;;;;;5.60;3.88;;;21.80;57.00;;;;;;5082424;28;20488;-62
2022/07/25 09:57:49;;;;;;;6.88;4.63;;;21.80;56.90;;;;;;5082632;28;20075;-63
2022/07/25 10:00:22;;;;;;;4.13;3.80;;;21.80;56.90;;;;;;5083285;28;20070;-63
2022/07/25 10:03:29;;;;;;;5.35;4.55;;;21.80;56.50;;;;;;5077300;28;20060;-63
2022/07/25 10:06:21;;;;;;;4.55;4.07;;;21.90;56.10;;;;;;5061740;28;20082;-63
2022/07/25 10:08:49;;;;;;;4.95;4.38;;;21.90;55.80;;;;;;5077630;28;20052;-60
2022/07/25 10:11:19;;;;;;;4.60;3.60;;;21.80;55.60;;;;;;5080295;28;20044;-63
2022/07/25 10:13:46;;;;;;;4.70;4.20;;;21.80;55.60;;;;;;5073778;28;20151;-63
2022/07/25 10:16:16;;;;;;;5.28;4.68;;;21.80;55.80;;;;;;5075775;28;20552;-63
2022/07/25 10:18:52;;;;;;;6.03;3.97;;;21.70;55.30;;;;;;5079078;28;20090;-63
2022/07/25 10:21:21;;;;;;;6.20;3.65;;;21.70;55.30;;;;;;5069257;28;20048;-63
2022/07/25 10:24:06;;;;;;;6.10;3.80;;;21.60;55.40;;;;;;5076071;28;20128;-63
2022/07/25 10:26:39;;;;;;;4.03;3.65;;;21.60;55.40;;;;;;5073529;28;20102;-63
2022/07/25 10:29:09;;;;;;;4.28;3.88;;;21.60;55.60;;;;;;5073813;28;20078;-63
2022/07/25 10:31:41;;;;;;;4.15;3.83;;;21.60;55.70;;;;;;5071603;28;20047;-63
2022/07/25 10:34:29;;;;;;;4.40;3.92;;;21.60;55.50;;;;;;5071328;28;20141;-63
2022/07/25 10:37:09;;;;;;;3.85;3.55;;;21.60;55.50;;;;;;5078676;28;20051;-62
2022/07/25 10:39:38;;;;;;;5.82;4.13;;;21.60;55.70;;;;;;5073129;28;20071;-63
2022/07/25 10:42:11;;;;;;;6.23;3.53;;;21.60;55.70;;;;;;5061480;28;20067;-62
2022/07/25 10:44:43;;;;;;;4.30;3.90;;;21.60;55.50;;;;;;5080047;28;20070;-65
2022/07/25 10:47:13;;;;;;;4.40;4.00;;;21.60;55.70;;;;;;5076350;28;20047;-64
2022/07/25 10:49:44;;;;;;;6.72;4.13;;;21.50;55.80;;;;;;5084037;28;20036;-63
2022/07/25 10:52:39;;;;;;;4.65;3.75;;;21.50;55.80;;;;;;5077191;28;20050;-64
2022/07/25 10:55:06;;;;;;;3.88;3.58;;;21.50;55.80;;;;;;5079464;28;20580;-63
2022/07/25 10:57:33;;;;;;;7.10;4.72;;;21.50;55.90;;;;;;5063460;28;20532;-64
2022/07/25 11:00:06;;;;;;;4.65;4.25;;;21.50;55.90;;;;;;5079499;28;20052;-64
2022/07/25 11:02:34;;;;;;;4.50;3.72;;;21.50;55.80;;;;;;5073216;28;20559;-63
2022/07/25 11:05:03;;;;;;;5.05;4.40;;;21.60;56.00;;;;;;5080025;28;20036;-65
2022/07/25 11:07:34;;;;;;;4.53;4.13;;;21.60;55.80;;;;;;5079546;28;20452;-65
2022/07/25 11:10:04;;;;;;;4.10;3.70;;;21.60;55.90;;;;;;5079040;28;20192;-64
2022/07/25 11:12:32;;;;;;;4.47;4.07;;;21.70;55.80;;;;;;5079149;28;20048;-64
2022/07/25 11:15:02;;;;;;;4.20;3.80;;;21.70;55.80;;;;;;5070529;28;20052;-64
2022/07/25 11:17:30;;;;;;;3.80;3.50;;;21.70;55.80;;;;;;5078942;28;20041;-64
2022/07/25 11:20:01;;;;;;;4.45;4.03;;;21.70;55.70;;;;;;5075733;28;20044;-64
2022/07/25 11:22:30;;;;;;;6.13;3.72;;;21.70;55.80;;;;;;5077600;28;20101;-63
2022/07/25 11:24:58;;;;;;;4.70;3.70;;;21.70;55.80;;;;;;5074772;28;20458;-64
2022/07/25 11:27:30;;;;;;;5.05;4.32;;;21.70;55.90;;;;;;5075706;28;20056;-64
2022/07/25 11:30:15;;;;;;;4.95;4.18;;;21.70;56.00;;;;;;5077274;28;20044;-63
2022/07/25 11:32:49;;;;;;;4.55;4.15;;;21.70;55.90;;;;;;5077571;28;20132;-63
2022/07/25 11:35:21;;;;;;;4.88;3.92;;;21.60;56.00;;;;;;5072320;28;20055;-63
2022/07/25 11:37:50;;;;;;;4.50;3.97;;;21.70;56.10;;;;;;5076932;28;20052;-63
2022/07/25 11:40:19;;;;;;;4.53;4.13;;;21.70;56.30;;;;;;5073161;28;20468;-63
2022/07/25 11:42:49;;;;;;;4.50;4.10;;;21.70;56.40;;;;;;5078201;28;20082;-63
2022/07/25 11:45:22;;;;;;;4.38;4.03;;;21.80;56.40;;;;;;5076845;28;20159;-62
2022/07/25 11:48:06;;;;;;;4.63;4.15;;;21.80;56.30;;;;;;5075890;28;20720;-62
2022/07/25 11:50:36;;;;;;;6.35;4.15;;;21.80;56.50;;;;;;5069977;28;20174;-63
2022/07/25 11:53:05;;;;;;;4.80;4.13;;;21.80;56.40;;;;;;5080498;28;20082;-63
2022/07/25 11:55:36;;;;;;;4.70;4.15;;;21.80;56.50;;;;;;5081328;28;20465;-63
2022/07/25 11:58:03;;;;;;;;;;;21.80;56.50;;;;;;5076228;28;20056;-63
2022/07/25 12:00:37;;;;;;;4.47;3.85;;;21.80;56.70;;;;;;5076116;28;20277;-63
2022/07/25 12:03:07;;;;;;;5.03;4.35;;;21.90;56.80;;;;;;5072224;28;20052;-61
2022/07/25 12:05:35;;;;;;;4.57;4.05;;;21.90;56.80;;;;;;5078092;28;20076;-63
2022/07/25 12:08:10;;;;;;;6.05;4.10;;;21.90;56.80;;;;;;5075570;28;20109;-64
2022/07/25 12:10:39;;;;;;;5.15;4.32;;;22.00;56.40;;;;;;5072216;28;20044;-64
2022/07/25 12:13:09;;;;;;;5.00;4.07;;;22.00;56.40;;;;;;5073863;28;20071;-64
2022/07/25 12:15:40;;;;;;;4.32;3.92;;;22.00;56.30;;;;;;5079107;28;20134;-64
2022/07/25 12:18:09;;;;;;;5.10;3.88;;;22.00;56.20;;;;;;5075980;28;20056;-64
2022/07/25 12:20:41;;;;;;;4.75;4.30;;;22.10;56.20;;;;;;5080316;28;20298;-64
2022/07/25 12:23:11;;;;;;;5.85;4.30;;;22.10;56.20;;;;;;5076347;28;20574;-65
2022/07/25 12:25:41;;;;;;;6.70;4.40;;;22.10;56.10;;;;;;5069500;28;20040;-64
2022/07/25 12:28:10;;;;;;;5.25;4.60;;;22.10;56.00;;;;;;5077104;28;20048;-64
2022/07/25 12:30:38;;;;;;;6.45;4.13;;;22.10;56.00;;;;;;5078458;28;20048;-64
2022/07/25 12:33:06;;;;;;;5.05;4.40;;;22.10;56.20;;;;;;5061969;28;20052;-65
2022/07/25 12:35:36;;;;;;;5.22;3.95;;;22.10;56.10;;;;;;5079112;28;20067;-63
2022/07/25 12:38:03;;;;;;;6.22;3.83;;;22.00;56.00;;;;;;5077795;28;20067;-63
2022/07/25 12:40:32;;;;;;;7.65;4.85;;;22.10;56.20;;;;;;5074661;28;20052;-64
2022/07/25 12:42:59;;;;;;;4.85;4.40;;;22.10;56.30;;;;;;5080379;28;20054;-62
2022/07/25 12:45:28;;;;;;;6.53;4.15;;;22.10;56.50;;;;;;5076723;28;20043;-61
2022/07/25 12:47:55;;;;;;;9.90;4.57;;;22.10;56.50;;;;;;5075173;28;20105;-62
2022/07/25 12:50:24;;;;;;;7.45;5.10;;;22.10;56.50;;;;;;5078714;28;20048;-61
2022/07/25 12:52:52;;;;;;;7.45;4.30;;;22.20;56.70;;;;;;5072140;28;20101;-64
2022/07/25 12:55:20;;;;;;;5.90;4.82;;;22.20;56.60;;;;;;5075148;28;20945;-62
2022/07/25 12:57:48;;;;;;;5.78;4.32;;;22.30;57.80;;;;;;5077167;28;20482;-61
2022/07/25 13:00:19;;;;;;;9.55;4.45;;;22.50;57.30;;;;;;5073498;28;20458;-61